Kzyl-Orda Southwest Airport


Codes: UAOO/KZO
Name: Kzyl-Orda Southwest Airport
City: Kzyl-Orda
Country: Kazakhstan
Elevation: 433 ft.

Photos at Kzyl-Orda Southwest Airport


   Photos courtesy of SpottingLog. You can add your own sightings and photos by signing up for a free trial today.



No photos found.

Weather at Kzyl-Orda Southwest Airport


Time (UTC)DescriptionTempratureWindCloud coverageVisibilityPressureHumidity
15-Apr-2024 18:00Few Clouds18°C9 mph, N19%10000m1017hPa32%
15-Apr-2024 21:00Few Clouds17°C7 mph, E22%10000m1018hPa36%
16-Apr-2024 00:00Scattered Clouds15°C7 mph, E46%10000m1020hPa39%
16-Apr-2024 03:00Overcast Clouds17°C4 mph, E91%10000m1021hPa39%
16-Apr-2024 06:00Overcast Clouds20°C2 mph, SW91%10000m1021hPa39%
16-Apr-2024 09:00Overcast Clouds24°C9 mph, SW98%10000m1020hPa25%
16-Apr-2024 12:00Overcast Clouds24°C13 mph, W90%10000m1020hPa24%
16-Apr-2024 15:00Few Clouds21°C9 mph, NW11%10000m1022hPa29%
16-Apr-2024 18:00Clear Sky19°C7 mph, NE7%10000m1022hPa33%
16-Apr-2024 21:00Overcast Clouds17°C7 mph, SE87%10000m1021hPa44%
17-Apr-2024 00:00Overcast Clouds16°C7 mph, SW89%10000m1022hPa40%
17-Apr-2024 03:00Overcast Clouds19°C7 mph, SW85%10000m1023hPa34%
17-Apr-2024 06:00Broken Clouds22°C4 mph, NW54%10000m1023hPa25%
17-Apr-2024 09:00Few Clouds25°C4 mph, NW12%10000m1022hPa19%
17-Apr-2024 12:00Clear Sky26°C9 mph, N10%10000m1021hPa22%
17-Apr-2024 15:00Few Clouds23°C9 mph, NE11%10000m1021hPa32%
17-Apr-2024 18:00Clear Sky21°C7 mph, NE6%10000m1021hPa37%
17-Apr-2024 21:00Clear Sky19°C9 mph, NE6%10000m1021hPa44%
18-Apr-2024 00:00Clear Sky18°C9 mph, NE3%10000m1021hPa55%
18-Apr-2024 03:00Clear Sky20°C16 mph, NE0%10000m1021hPa49%
18-Apr-2024 06:00Clear Sky25°C20 mph, NE0%10000m1020hPa35%
18-Apr-2024 09:00Clear Sky27°C20 mph, NE0%10000m1018hPa26%
18-Apr-2024 12:00Clear Sky27°C22 mph, NE0%10000m1016hPa25%
18-Apr-2024 15:00Clear Sky24°C18 mph, NE0%10000m1017hPa29%
18-Apr-2024 18:00Clear Sky22°C20 mph, NE0%10000m1016hPa27%
18-Apr-2024 21:00Clear Sky20°C18 mph, NE0%10000m1016hPa32%
19-Apr-2024 00:00Clear Sky18°C18 mph, NE0%10000m1015hPa39%
19-Apr-2024 03:00Clear Sky21°C22 mph, NE0%10000m1016hPa36%
19-Apr-2024 06:00Clear Sky26°C27 mph, NE0%10000m1015hPa22%
19-Apr-2024 09:00Clear Sky28°C29 mph, E0%10000m1013hPa15%
19-Apr-2024 12:00Clear Sky29°C27 mph, E0%10000m1012hPa15%
19-Apr-2024 15:00Clear Sky26°C20 mph, NE0%10000m1012hPa19%
19-Apr-2024 18:00Clear Sky23°C13 mph, NE0%10000m1013hPa26%
19-Apr-2024 21:00Clear Sky21°C13 mph, NE0%10000m1012hPa30%
20-Apr-2024 00:00Clear Sky20°C20 mph, NE0%10000m1012hPa32%
20-Apr-2024 03:00Clear Sky22°C22 mph, NE0%10000m1013hPa35%
20-Apr-2024 06:00Clear Sky27°C27 mph, E0%10000m1013hPa24%
20-Apr-2024 09:00Clear Sky30°C29 mph, E1%10000m1012hPa19%
20-Apr-2024 12:00Clear Sky30°C27 mph, E7%10000m1011hPa20%
20-Apr-2024 15:00Few Clouds26°C18 mph, E12%10000m1012hPa26%